createdAt,value
2018-10-19T00:00:27.053Z,98657.50
2018-10-19T00:01:31.042Z,98658.35
2018-10-19T00:02:34.066Z,98654.66
2018-10-19T00:03:36.767Z,98657.70
2018-10-19T00:04:40.053Z,98652.01
2018-10-19T00:05:42.908Z,98650.39
2018-10-19T00:06:45.708Z,98646.13
2018-10-19T00:07:48.525Z,98644.57
2018-10-19T00:08:52.362Z,98643.84
2018-10-19T00:09:55.065Z,98645.27
2018-10-19T00:10:58.142Z,98640.42
2018-10-19T00:12:00.893Z,98646.43
2018-10-19T00:13:03.784Z,98648.88
2018-10-19T00:14:06.530Z,98648.31
2018-10-19T00:15:10.117Z,98648.37
2018-10-19T00:16:14.087Z,98643.52
2018-10-19T00:17:17.519Z,98645.14
2018-10-19T00:18:21.400Z,98642.38
2018-10-19T00:19:26.623Z,98642.27
2018-10-19T00:20:33.282Z,98636.64
2018-10-19T00:21:36.553Z,98634.06
2018-10-19T00:22:40.235Z,98637.75
2018-10-19T00:23:43.222Z,98636.75
2018-10-19T00:24:45.936Z,98632.86
2018-10-19T00:25:48.746Z,98640.63
2018-10-19T00:26:51.435Z,98639.77
2018-10-19T00:27:54.166Z,98636.80
2018-10-19T00:28:56.908Z,98646.12
2018-10-19T00:30:00.188Z,98627.59
2018-10-19T00:31:02.915Z,98634.39
2018-10-19T00:32:05.768Z,98630.76
2018-10-19T00:33:08.737Z,98628.41
2018-10-19T00:34:11.473Z,98632.30
2018-10-19T00:35:14.273Z,98635.55
2018-10-19T00:36:18.162Z,98643.31
2018-10-19T00:37:21.186Z,98641.77
2018-10-19T00:38:23.986Z,98632.86
2018-10-19T00:39:27.213Z,98638.94
2018-10-19T00:40:30.271Z,98640.58
2018-10-19T00:41:33.688Z,98642.26
2018-10-19T00:42:36.928Z,98641.09
2018-10-19T00:43:39.871Z,98641.65
2018-10-19T00:44:42.597Z,98638.87
2018-10-19T00:45:47.142Z,98642.20
2018-10-19T00:46:50.271Z,98645.73
2018-10-19T00:47:53.076Z,98643.94
2018-10-19T00:48:56.573Z,98643.94
2018-10-19T00:49:59.436Z,98639.59
2018-10-19T00:51:03.229Z,98641.36
2018-10-19T00:52:05.911Z,98638.25
2018-10-19T00:53:09.298Z,98646.61
2018-10-19T00:54:12.005Z,98642.78
2018-10-19T00:55:15.054Z,98642.09
2018-10-19T00:56:19.661Z,98644.14
2018-10-19T00:57:22.399Z,98640.91
2018-10-19T00:58:25.115Z,98643.30
2018-10-19T00:59:28.654Z,98640.72
2018-10-19T01:00:31.389Z,98638.17
2018-10-19T01:01:34.582Z,98637.27
2018-10-19T01:02:37.891Z,98634.55
2018-10-19T01:03:40.611Z,98635.78
2018-10-19T01:04:43.401Z,98633.20
2018-10-19T01:05:46.868Z,98641.30
2018-10-19T01:06:50.366Z,98634.69
2018-10-19T01:07:53.423Z,98639.02
2018-10-19T01:08:58.037Z,98638.99
2018-10-19T01:10:01.237Z,98632.79
2018-10-19T01:11:04.658Z,98636.81
2018-10-19T01:12:08.102Z,98631.57
2018-10-19T01:13:11.394Z,98633.70
2018-10-19T01:14:15.698Z,98635.34
2018-10-19T01:15:18.763Z,98632.93
2018-10-19T01:16:21.633Z,98636.22
2018-10-19T01:17:24.537Z,98637.72
2018-10-19T01:18:28.164Z,98635.28
2018-10-19T01:19:31.919Z,98638.14
2018-10-19T01:20:35.251Z,98636.58
2018-10-19T01:21:39.679Z,98633.45
2018-10-19T01:22:42.414Z,98636.37
2018-10-19T01:23:45.112Z,98636.74
2018-10-19T01:24:48.961Z,98631.27
2018-10-19T01:25:51.739Z,98633.11
2018-10-19T01:26:54.809Z,98644.53
2018-10-19T01:27:57.533Z,98634.91
2018-10-19T01:29:06.611Z,98634.55
2018-10-19T01:30:11.346Z,98630.58
2018-10-19T01:31:14.742Z,98626.00
2018-10-19T01:32:17.701Z,98628.49
2018-10-19T01:33:20.765Z,98626.31
2018-10-19T01:34:24.874Z,98622.50
2018-10-19T01:35:27.561Z,98625.31
2018-10-19T01:36:36.910Z,98627.62
2018-10-19T01:37:39.615Z,98627.77
2018-10-19T01:38:43.250Z,98628.28
2018-10-19T01:39:47.447Z,98631.84
2018-10-19T01:40:50.900Z,98633.47
2018-10-19T01:41:53.666Z,98634.11
2018-10-19T01:42:56.541Z,98633.78
2018-10-19T01:44:03.461Z,98638.39
2018-10-19T01:45:06.309Z,98634.11
2018-10-19T01:46:09.435Z,98641.10
2018-10-19T01:47:12.223Z,98636.75
2018-10-19T01:48:15.255Z,98641.47
2018-10-19T01:49:19.073Z,98640.52
2018-10-19T01:50:21.753Z,98640.52
2018-10-19T01:51:24.487Z,98637.64
2018-10-19T01:52:28.435Z,98641.05
2018-10-19T01:53:31.125Z,98639.80
2018-10-19T01:54:33.800Z,98637.54
2018-10-19T01:55:36.507Z,98636.34
2018-10-19T01:56:39.711Z,98636.02
2018-10-19T01:57:43.073Z,98637.34
2018-10-19T01:58:46.834Z,98639.27
2018-10-19T01:59:49.609Z,98637.13
2018-10-19T02:00:52.316Z,98638.39
2018-10-19T02:01:56.095Z,98642.92
2018-10-19T02:03:00.290Z,98638.06
2018-10-19T02:04:03.157Z,98639.70
2018-10-19T02:05:06.261Z,98634.94
2018-10-19T02:06:08.975Z,98643.87
2018-10-19T02:07:11.698Z,98639.95
2018-10-19T02:08:15.003Z,98639.47
2018-10-19T02:09:18.285Z,98639.11
2018-10-19T02:10:20.973Z,98641.15
2018-10-19T02:11:24.574Z,98642.77
2018-10-19T02:12:27.254Z,98644.43
2018-10-19T02:13:31.133Z,98641.97
2018-10-19T02:14:33.802Z,98642.30
2018-10-19T02:15:36.505Z,98648.09
2018-10-19T02:16:39.351Z,98648.72
2018-10-19T02:17:42.634Z,98648.09
2018-10-19T02:18:45.312Z,98640.72
2018-10-19T02:19:51.142Z,98641.20
2018-10-19T02:20:55.901Z,98642.72
2018-10-19T02:21:58.661Z,98636.34
2018-10-19T02:23:01.411Z,98639.84
2018-10-19T02:24:05.025Z,98642.47
2018-10-19T02:25:08.115Z,98645.89
2018-10-19T02:26:10.803Z,98646.09
2018-10-19T02:27:14.360Z,98638.53
2018-10-19T02:28:17.484Z,98639.89
2018-10-19T02:29:21.375Z,98647.19
2018-10-19T02:30:25.270Z,98644.37
2018-10-19T02:31:28.628Z,98649.35
2018-10-19T02:32:32.017Z,98646.69
2018-10-19T02:33:34.833Z,98647.73
2018-10-19T02:34:37.693Z,98649.41
2018-10-19T02:35:40.499Z,98641.88
2018-10-19T02:36:44.539Z,98636.70
2018-10-19T02:37:47.211Z,98640.36
2018-10-19T02:38:50.183Z,98645.53
2018-10-19T02:39:53.091Z,98640.41
2018-10-19T02:40:56.622Z,98637.44
2018-10-19T02:41:59.836Z,98631.55
2018-10-19T02:43:02.785Z,98634.16
2018-10-19T02:44:05.470Z,98634.16
2018-10-19T02:45:09.084Z,98631.49
2018-10-19T02:46:11.678Z,98634.45
2018-10-19T02:47:14.446Z,98635.10
2018-10-19T02:48:17.824Z,98642.09
2018-10-19T02:49:20.816Z,98643.41
2018-10-19T02:50:23.594Z,98648.45
2018-10-19T02:51:27.090Z,98647.16
2018-10-19T02:52:29.780Z,98645.27
2018-10-19T02:53:32.473Z,98648.16
2018-10-19T02:54:35.374Z,98654.05
2018-10-19T02:55:38.337Z,98656.16
2018-10-19T02:56:41.675Z,98651.87
2018-10-19T02:57:44.378Z,98655.03
2018-10-19T02:58:47.046Z,98649.66
2018-10-19T02:59:49.761Z,98650.27
2018-10-19T03:00:52.435Z,98653.16
2018-10-19T03:01:55.428Z,98652.63
2018-10-19T03:02:58.148Z,98649.60
2018-10-19T03:04:00.856Z,98650.40
2018-10-19T03:05:03.595Z,98648.59
2018-10-19T03:06:06.632Z,98646.42
2018-10-19T03:07:09.320Z,98648.17
2018-10-19T03:08:12.530Z,98650.81
2018-10-19T03:09:15.294Z,98654.09
2018-10-19T03:10:19.092Z,98654.30
2018-10-19T03:11:22.513Z,98649.09
2018-10-19T03:12:25.200Z,98647.20
2018-10-19T03:13:28.446Z,98645.85
2018-10-19T03:14:32.248Z,98645.77
2018-10-19T03:15:35.773Z,98651.09
2018-10-19T03:16:38.435Z,98648.64
2018-10-19T03:17:41.156Z,98647.55
2018-10-19T03:18:43.843Z,98652.20
2018-10-19T03:19:47.658Z,98653.46
2018-10-19T03:20:50.661Z,98645.93
2018-10-19T03:21:53.930Z,98656.09
2018-10-19T03:22:56.690Z,98654.80
2018-10-19T03:24:00.704Z,98656.41
2018-10-19T03:25:03.379Z,98656.41
2018-10-19T03:26:07.354Z,98655.36
2018-10-19T03:27:12.617Z,98657.38
2018-10-19T03:28:15.264Z,98656.41
2018-10-19T03:29:18.339Z,98650.19
2018-10-19T03:30:20.938Z,98653.86
2018-10-19T03:31:23.631Z,98651.31
2018-10-19T03:32:26.359Z,98651.48
2018-10-19T03:33:29.508Z,98648.73
2018-10-19T03:34:32.183Z,98646.88
2018-10-19T03:35:34.864Z,98649.89
2018-10-19T03:36:37.590Z,98653.95
2018-10-19T03:37:40.296Z,98654.66
2018-10-19T03:38:43.630Z,98651.50
2018-10-19T03:39:47.989Z,98647.13
2018-10-19T03:40:50.691Z,98654.92
2018-10-19T03:41:53.447Z,98656.92
2018-10-19T03:42:56.754Z,98649.52
2018-10-19T03:43:59.449Z,98646.77
2018-10-19T03:45:03.131Z,98643.23
2018-10-19T03:46:06.888Z,98649.40
2018-10-19T03:47:09.618Z,98653.34
2018-10-19T03:48:12.514Z,98652.13
2018-10-19T03:49:16.449Z,98649.89
2018-10-19T03:50:19.948Z,98650.34
2018-10-19T03:51:22.986Z,98652.04
2018-10-19T03:52:26.423Z,98646.20
2018-10-19T03:53:29.994Z,98655.66
2018-10-19T03:54:32.715Z,98651.02
2018-10-19T03:55:35.554Z,98655.84
2018-10-19T03:56:38.268Z,98653.64
2018-10-19T03:57:42.099Z,98655.47
2018-10-19T03:58:45.220Z,98656.30
2018-10-19T03:59:47.956Z,98657.01
2018-10-19T04:00:50.644Z,98653.81
2018-10-19T04:01:53.317Z,98655.70
2018-10-19T04:02:56.052Z,98648.66
2018-10-19T04:03:59.983Z,98655.33
2018-10-19T04:05:03.172Z,98647.08
2018-10-19T04:06:06.810Z,98647.42
2018-10-19T04:07:09.500Z,98644.64
2018-10-19T04:08:12.210Z,98641.97
2018-10-19T04:09:20.407Z,98644.75
2018-10-19T04:10:23.276Z,98642.18
2018-10-19T04:11:26.432Z,98641.61
2018-10-19T04:12:29.889Z,98648.92
2018-10-19T04:13:32.562Z,98642.97
2018-10-19T04:14:35.340Z,98640.11
2018-10-19T04:15:38.068Z,98645.42
2018-10-19T04:16:41.933Z,98648.44
2018-10-19T04:17:45.123Z,98644.64
2018-10-19T04:18:48.343Z,98643.43
2018-10-19T04:19:52.030Z,98649.94
2018-10-19T04:20:55.233Z,98643.81
2018-10-19T04:21:58.191Z,98646.48
2018-10-19T04:23:16.855Z,98647.50
2018-10-19T04:24:20.449Z,98640.01
2018-10-19T04:25:23.404Z,98645.50
2018-10-19T04:26:26.097Z,98642.27
2018-10-19T04:27:29.539Z,98646.03
2018-10-19T04:28:32.977Z,98642.50
2018-10-19T04:29:36.018Z,98645.20
2018-10-19T04:30:38.827Z,98647.42
2018-10-19T04:31:41.539Z,98643.25
2018-10-19T04:32:45.266Z,98650.28
2018-10-19T04:33:47.990Z,98654.16
2018-10-19T04:34:50.701Z,98645.80
2018-10-19T04:35:54.343Z,98646.96
2018-10-19T04:36:57.067Z,98646.11
2018-10-19T04:38:00.581Z,98651.64
2018-10-19T04:39:03.422Z,98652.84
2018-10-19T04:40:06.922Z,98647.91
2018-10-19T04:41:10.070Z,98652.47
2018-10-19T04:42:13.127Z,98654.05
2018-10-19T04:43:16.415Z,98652.66
2018-10-19T04:44:19.086Z,98658.72
2018-10-19T04:45:21.782Z,98655.25
2018-10-19T04:46:24.722Z,98651.15
2018-10-19T04:47:27.462Z,98657.06
2018-10-19T04:48:30.619Z,98653.52
2018-10-19T04:49:33.328Z,98654.45
2018-10-19T04:50:36.724Z,98652.45
2018-10-19T04:51:39.396Z,98655.73
2018-10-19T04:52:43.213Z,98650.58
2018-10-19T04:53:45.982Z,98654.30
2018-10-19T04:54:49.065Z,98653.98
2018-10-19T04:55:51.808Z,98656.78
2018-10-19T04:56:55.464Z,98658.33
2018-10-19T04:57:58.302Z,98653.13
2018-10-19T04:59:00.996Z,98664.75
2018-10-19T05:00:03.731Z,98659.94
2018-10-19T05:01:06.396Z,98657.84
2018-10-19T05:02:09.980Z,98666.31
2018-10-19T05:03:13.223Z,98658.78
2018-10-19T05:04:15.884Z,98664.69
2018-10-19T05:05:19.233Z,98667.77
2018-10-19T05:06:22.296Z,98667.14
2018-10-19T05:07:25.292Z,98665.04
2018-10-19T05:08:28.788Z,98670.35
2018-10-19T05:09:31.462Z,98665.00
2018-10-19T05:10:37.627Z,98672.19
2018-10-19T05:11:40.756Z,98662.29
2018-10-19T05:12:43.599Z,98665.75
2018-10-19T05:13:46.566Z,98668.61
2018-10-19T05:14:49.239Z,98665.00
2018-10-19T05:15:51.921Z,98668.16
2018-10-19T05:16:54.642Z,98665.41
2018-10-19T05:17:58.999Z,98670.48
2018-10-19T05:19:01.722Z,98670.48
2018-10-19T05:20:04.730Z,98680.42
2018-10-19T05:21:07.447Z,98672.02
2018-10-19T05:22:10.152Z,98675.59
2018-10-19T05:23:14.443Z,98669.13
2018-10-19T05:24:17.921Z,98670.48
2018-10-19T05:25:20.594Z,98677.03
2018-10-19T05:26:24.184Z,98679.36
2018-10-19T05:27:26.922Z,98674.25
2018-10-19T05:28:29.712Z,98677.70
2018-10-19T05:29:32.429Z,98678.09
2018-10-19T05:30:36.315Z,98675.05
2018-10-19T05:44:41.871Z,98690.27
2018-10-19T05:45:44.556Z,98689.05
2018-10-19T05:46:47.313Z,98689.44
2018-10-19T05:47:50.059Z,98693.23
2018-10-19T05:48:53.225Z,98689.73
2018-10-19T05:49:56.244Z,98685.33
2018-10-19T05:50:58.962Z,98685.73
2018-10-19T05:52:01.712Z,98685.62
2018-10-19T05:53:04.451Z,98683.91
2018-10-19T05:54:07.256Z,98680.03
2018-10-19T05:55:11.447Z,98675.97
2018-10-19T05:56:14.505Z,98678.98
2018-10-19T05:57:18.934Z,98676.75
2018-10-19T05:58:21.894Z,98676.61
2018-10-19T05:59:25.061Z,98675.11
2018-10-19T06:00:27.736Z,98674.86
2018-10-19T06:01:30.483Z,98671.84
2018-10-19T06:02:33.789Z,98675.37
2018-10-19T06:03:37.133Z,98674.38
2018-10-19T06:04:39.867Z,98675.39
2018-10-19T06:05:42.696Z,98673.73
2018-10-19T06:06:45.539Z,98674.48
2018-10-19T06:07:48.218Z,98679.30
2018-10-19T06:08:51.394Z,98675.23
2018-10-19T06:09:54.345Z,98680.34
2018-10-19T06:10:57.508Z,98674.17
2018-10-19T06:12:00.286Z,98679.46
2018-10-19T06:13:04.416Z,98679.46
2018-10-19T06:14:07.184Z,98681.66
2018-10-19T06:15:10.578Z,98681.87
2018-10-19T06:16:13.278Z,98678.19
2018-10-19T06:17:16.229Z,98684.09
2018-10-19T06:18:19.746Z,98687.17
2018-10-19T06:19:23.300Z,98690.52
2018-10-19T06:20:26.114Z,98686.30
2018-10-19T06:21:29.581Z,98694.67
2018-10-19T06:22:33.537Z,98693.25
2018-10-19T06:23:36.975Z,98704.14
2018-10-19T06:24:39.669Z,98700.05
2018-10-19T06:25:42.551Z,98704.70
2018-10-19T06:26:45.380Z,98704.08
2018-10-19T06:27:48.435Z,98701.64
2018-10-19T06:28:51.372Z,98702.99
2018-10-19T06:29:54.717Z,98702.43
2018-10-19T06:30:57.509Z,98701.61
2018-10-19T06:32:00.244Z,98706.43
2018-10-19T06:33:03.064Z,98702.78
2018-10-19T06:34:06.225Z,98705.28
2018-10-19T06:35:09.132Z,98705.20
2018-10-19T06:36:12.737Z,98706.23
2018-10-19T06:37:15.390Z,98707.55
2018-10-19T06:38:19.652Z,98708.37
2018-10-19T06:39:24.648Z,98707.55
2018-10-19T06:40:28.446Z,98706.41
2018-10-19T06:41:31.987Z,98708.14
2018-10-19T06:42:34.733Z,98704.64
2018-10-19T06:43:38.519Z,98707.36
2018-10-19T06:44:43.737Z,98707.73
2018-10-19T06:45:50.633Z,98708.97
2018-10-19T06:46:56.217Z,98713.37
2018-10-19T06:47:59.861Z,98706.52
2018-10-19T06:49:02.791Z,98709.12
2018-10-19T06:50:05.514Z,98708.06
2018-10-19T06:51:09.408Z,98712.45
2018-10-19T06:52:12.416Z,98708.73
2018-10-19T06:53:15.680Z,98708.10
2018-10-19T06:54:19.700Z,98706.67
2018-10-19T06:55:22.557Z,98709.68
2018-10-19T06:56:25.265Z,98703.48
2018-10-19T06:57:28.857Z,98709.22
2018-10-19T06:58:31.594Z,98713.25
2018-10-19T06:59:34.625Z,98717.27
2018-10-19T07:00:37.297Z,98719.19
2018-10-19T07:01:39.999Z,98718.16
2018-10-19T07:02:42.699Z,98715.08
2018-10-19T07:03:46.235Z,98715.03
2018-10-19T07:04:48.907Z,98716.05
2018-10-19T07:05:52.359Z,98723.27
2018-10-19T07:06:55.139Z,98717.05
2018-10-19T07:07:57.960Z,98722.53
2018-10-19T07:09:00.957Z,98719.33
2018-10-19T07:10:04.304Z,98722.22
2018-10-19T07:11:07.148Z,98722.21
2018-10-19T07:12:10.181Z,98722.48
2018-10-19T07:13:12.942Z,98726.86
2018-10-19T07:14:15.756Z,98727.16
2018-10-19T07:15:19.158Z,98718.09
2018-10-19T07:16:22.194Z,98722.35
2018-10-19T07:17:24.963Z,98722.40
2018-10-19T07:18:27.645Z,98714.07
2018-10-19T07:19:30.377Z,98715.73
2018-10-19T07:20:34.184Z,98720.09
2018-10-19T07:21:38.319Z,98722.34
2018-10-19T07:22:42.877Z,98713.23
2018-10-19T07:23:46.581Z,98716.02
2018-10-19T07:24:50.528Z,98722.63
2018-10-19T07:25:53.284Z,98721.43
2018-10-19T07:26:55.973Z,98717.71
2018-10-19T07:27:58.798Z,98723.61
2018-10-19T07:29:02.148Z,98724.52
2018-10-19T07:30:04.959Z,98730.21
2018-10-19T07:31:08.768Z,98730.53
2018-10-19T07:32:11.535Z,98729.17
2018-10-19T07:33:14.526Z,98725.45
2018-10-19T07:34:17.793Z,98728.84
2018-10-19T07:35:20.508Z,98733.39
2018-10-19T07:36:23.285Z,98730.53
2018-10-19T07:37:27.254Z,98737.63
2018-10-19T07:38:30.286Z,98732.88
2018-10-19T07:39:33.987Z,98733.88
2018-10-19T07:40:36.788Z,98739.68
2018-10-19T07:41:39.924Z,98737.02
2018-10-19T07:42:42.698Z,98736.81
2018-10-19T07:43:46.120Z,98733.53
2018-10-19T07:44:49.120Z,98731.48
2018-10-19T07:45:52.011Z,98725.32
2018-10-19T07:46:54.769Z,98733.27
2018-10-19T07:47:58.020Z,98725.36
2018-10-19T07:49:00.526Z,98733.83
2018-10-19T07:50:03.621Z,98733.21
2018-10-19T07:51:06.637Z,98734.49
2018-10-19T07:52:13.166Z,98736.91
2018-10-19T07:53:16.725Z,98730.59
2018-10-19T07:54:19.826Z,98734.98
2018-10-19T07:55:24.301Z,98736.64
2018-10-19T07:56:27.280Z,98736.08
2018-10-19T07:57:31.446Z,98739.02
2018-10-19T07:58:34.232Z,98744.45
2018-10-19T07:59:37.837Z,98738.47
2018-10-19T08:00:43.282Z,98733.11
2018-10-19T08:01:46.229Z,98732.86
2018-10-19T08:02:49.283Z,98732.94
2018-10-19T08:03:52.624Z,98737.61
2018-10-19T08:04:56.174Z,98732.06
2018-10-19T08:05:58.933Z,98737.32
2018-10-19T08:07:02.666Z,98741.05
2018-10-19T08:08:06.475Z,98740.86
2018-10-19T08:09:11.239Z,98742.16
2018-10-19T08:10:15.663Z,98738.62
2018-10-19T08:11:20.533Z,98745.42
2018-10-19T08:12:23.336Z,98739.78
2018-10-19T08:13:26.045Z,98745.34
2018-10-19T08:14:28.924Z,98736.50
2018-10-19T08:15:32.273Z,98739.16
2018-10-19T08:16:35.961Z,98737.55
2018-10-19T08:17:39.461Z,98742.20
2018-10-19T08:18:42.917Z,98743.72
2018-10-19T08:19:45.804Z,98746.09
2018-10-19T08:20:48.689Z,98738.74
2018-10-19T08:21:53.102Z,98743.17
2018-10-19T08:22:56.381Z,98743.33
2018-10-19T08:23:59.812Z,98743.16
2018-10-19T08:25:08.662Z,98742.78
2018-10-19T08:26:11.665Z,98743.42
2018-10-19T08:27:14.444Z,98744.40
2018-10-19T08:28:17.717Z,98745.86
2018-10-19T08:29:21.991Z,98747.95
2018-10-19T08:30:24.807Z,98751.23
2018-10-19T08:31:27.657Z,98750.72
2018-10-19T08:32:30.416Z,98747.98
2018-10-19T08:33:33.242Z,98745.67
2018-10-19T08:34:37.902Z,98746.58
2018-10-19T08:35:40.790Z,98747.03
2018-10-19T08:36:44.288Z,98749.94
2018-10-19T08:37:47.566Z,98752.94
2018-10-19T08:38:50.424Z,98751.36
2018-10-19T08:39:53.712Z,98746.40
2018-10-19T08:40:57.022Z,98750.15
2018-10-19T08:41:59.874Z,98751.11
2018-10-19T08:43:02.934Z,98742.36
2018-10-19T08:44:05.700Z,98746.38
2018-10-19T08:45:08.983Z,98751.91
2018-10-19T08:46:18.919Z,98747.31
2018-10-19T08:47:21.632Z,98750.30
2018-10-19T08:48:28.980Z,98747.14
2018-10-19T08:49:32.387Z,98749.75
2018-10-19T08:50:36.990Z,98744.74
2018-10-19T08:51:40.522Z,98743.05
2018-10-19T08:52:45.475Z,98749.61
2018-10-19T08:53:50.206Z,98744.13
2018-10-19T08:54:53.000Z,98747.61
2018-10-19T08:55:56.357Z,98742.87
2018-10-19T08:57:00.623Z,98742.34
2018-10-19T08:58:04.664Z,98744.77
2018-10-19T08:59:08.216Z,98745.50
2018-10-19T09:00:11.566Z,98740.98
2018-10-19T09:01:15.477Z,98746.85
2018-10-19T09:02:18.866Z,98743.42
2018-10-19T09:03:22.647Z,98748.31
2018-10-19T09:04:25.884Z,98750.39
2018-10-19T09:05:30.676Z,98744.77
2018-10-19T09:06:34.051Z,98748.56
2018-10-19T09:07:38.190Z,98749.60
2018-10-19T09:08:41.266Z,98752.08
2018-10-19T09:09:44.805Z,98749.92
2018-10-19T09:10:48.524Z,98754.03
2018-10-19T09:11:52.636Z,98752.72
2018-10-19T09:12:57.177Z,98752.45
2018-10-19T09:14:00.344Z,98751.25
2018-10-19T09:15:03.469Z,98755.00
2018-10-19T09:16:06.240Z,98762.02
2018-10-19T09:17:09.009Z,98754.28
2018-10-19T09:18:12.395Z,98749.08
2018-10-19T09:19:15.529Z,98751.98
2018-10-19T09:20:18.985Z,98759.39
2018-10-19T09:21:22.977Z,98760.59
2018-10-19T09:22:25.819Z,98758.23
2018-10-19T09:23:28.921Z,98760.30
2018-10-19T09:24:35.780Z,98753.96
2018-10-19T09:25:38.642Z,98754.76
2018-10-19T09:26:42.742Z,98756.18
2018-10-19T09:27:47.151Z,98754.80
2018-10-19T09:28:50.627Z,98756.16
2018-10-19T09:29:53.501Z,98754.52
2018-10-19T09:31:00.004Z,98750.87
2018-10-19T09:32:02.828Z,98752.58
2018-10-19T09:33:06.149Z,98746.95
2018-10-19T09:34:08.975Z,98755.14
2018-10-19T09:35:13.509Z,98758.49
2018-10-19T09:36:18.299Z,98753.02
2018-10-19T09:37:21.283Z,98751.30
2018-10-19T09:38:24.754Z,98754.30
2018-10-19T09:39:27.471Z,98750.41
2018-10-19T09:40:32.634Z,98743.94
2018-10-19T09:41:35.351Z,98749.88
2018-10-19T09:42:38.111Z,98746.10
2018-10-19T09:43:42.178Z,98749.30
2018-10-19T09:44:46.159Z,98746.42
2018-10-19T09:45:49.894Z,98747.53
2018-10-19T09:46:54.238Z,98749.31
2018-10-19T09:47:57.199Z,98744.30
2018-10-19T09:49:02.476Z,98743.84
2018-10-19T09:50:06.290Z,98740.81
2018-10-19T09:51:09.692Z,98737.54
2018-10-19T09:52:13.601Z,98736.71
2018-10-19T09:53:18.488Z,98732.98
2018-10-19T09:54:22.013Z,98735.52
2018-10-19T09:55:25.564Z,98729.80
2018-10-19T09:56:29.359Z,98731.52
2018-10-19T09:57:32.072Z,98732.38
2018-10-19T09:58:37.235Z,98733.56
2018-10-19T09:59:41.107Z,98728.22
2018-10-19T10:00:48.664Z,98733.38
2018-10-19T10:01:54.493Z,98732.41
2018-10-19T10:02:59.478Z,98731.66
2018-10-19T10:04:02.208Z,98733.84
2018-10-19T10:05:06.168Z,98730.92
2018-10-19T10:06:09.830Z,98736.75
2018-10-19T10:07:13.416Z,98732.02
2018-10-19T10:08:19.803Z,98735.17
2018-10-19T10:09:23.682Z,98735.72
2018-10-19T10:10:28.996Z,98734.27
2018-10-19T10:11:32.187Z,98738.27
2018-10-19T10:12:35.151Z,98733.58
2018-10-19T10:13:39.100Z,98730.72
2018-10-19T10:14:43.600Z,98735.98
2018-10-19T10:15:47.329Z,98734.32
2018-10-19T10:16:50.212Z,98728.58
2018-10-19T10:17:56.544Z,98730.63
2018-10-19T10:19:00.426Z,98732.60
2018-10-19T10:20:06.580Z,98728.68
2018-10-19T10:21:10.251Z,98726.78
2018-10-19T10:22:16.723Z,98729.96
2018-10-19T10:23:22.351Z,98729.52
2018-10-19T10:24:26.539Z,98724.42
2018-10-19T10:25:30.747Z,98726.77
2018-10-19T10:26:34.410Z,98723.53
2018-10-19T10:27:38.559Z,98724.80
2018-10-19T10:28:41.904Z,98721.27
2018-10-19T10:29:44.628Z,98722.38
2018-10-19T10:30:47.594Z,98716.11
2018-10-19T10:43:48.066Z,98715.22
2018-10-19T10:44:52.131Z,98718.09
2018-10-19T10:45:55.714Z,98714.66
2018-10-19T10:47:04.810Z,98716.16
2018-10-19T10:48:11.879Z,98715.50
2018-10-19T10:49:23.966Z,98715.04
2018-10-19T10:50:27.319Z,98714.02
2018-10-19T10:51:30.528Z,98717.53
2018-10-19T10:52:38.695Z,98717.14
2018-10-19T10:53:46.628Z,98717.34
2018-10-19T10:54:52.253Z,98715.86
2018-10-19T10:55:55.595Z,98714.39
2018-10-19T10:56:59.352Z,98713.73
2018-10-19T10:58:02.427Z,98716.13
2018-10-19T10:59:05.386Z,98714.31
2018-10-19T11:00:09.082Z,98713.91
2018-10-19T11:01:13.262Z,98711.80
2018-10-19T11:02:23.373Z,98705.09
2018-10-19T11:03:27.898Z,98703.36
2018-10-19T11:04:31.020Z,98703.36
2018-10-19T11:05:35.960Z,98699.84
2018-10-19T11:06:39.051Z,98696.75
2018-10-19T11:07:42.334Z,98696.97
2018-10-19T11:08:45.039Z,98695.48
2018-10-19T11:09:47.803Z,98695.86
2018-10-19T11:12:00.617Z,98691.89
2018-10-19T11:13:04.049Z,98693.48
2018-10-19T11:14:08.519Z,98688.53
2018-10-19T11:15:11.836Z,98690.19
2018-10-19T11:16:15.669Z,98690.99
2018-10-19T11:17:20.690Z,98689.25
2018-10-19T11:18:24.397Z,98692.45
2018-10-19T11:19:29.097Z,98684.77
2018-10-19T11:20:32.700Z,98697.52
2018-10-19T11:21:39.109Z,98689.35
2018-10-19T11:22:42.568Z,98686.79
2018-10-19T11:23:45.260Z,98694.45
2018-10-19T11:24:48.691Z,98694.33
2018-10-19T11:25:51.573Z,98690.77
2018-10-19T11:26:54.891Z,98690.62
2018-10-19T11:27:58.959Z,98685.92
2018-10-19T11:29:02.290Z,98692.38
2018-10-19T11:30:07.777Z,98686.89
2018-10-19T11:31:11.461Z,98682.44
2018-10-19T11:32:16.696Z,98677.44
2018-10-19T11:33:23.267Z,98678.97
2018-10-19T11:34:30.366Z,98688.11
2018-10-19T11:35:35.436Z,98680.28
2018-10-19T11:36:42.651Z,98681.07
2018-10-19T11:37:47.396Z,98680.02
2018-10-19T11:38:53.380Z,98677.39
2018-10-19T11:40:01.222Z,98678.28
2018-10-19T11:41:05.392Z,98677.91
2018-10-19T11:42:19.514Z,98680.55
2018-10-19T11:43:22.248Z,98682.60
2018-10-19T11:44:31.582Z,98678.18
2018-10-19T11:45:37.438Z,98673.75
2018-10-19T11:46:41.309Z,98673.32
2018-10-19T11:47:49.193Z,98672.42
2018-10-19T11:48:53.376Z,98674.20
2018-10-19T11:49:56.578Z,98674.28
2018-10-19T11:51:00.264Z,98673.63
2018-10-19T11:52:03.694Z,98677.97
2018-10-19T11:53:07.179Z,98674.28
2018-10-19T11:54:24.245Z,98670.88
2018-10-19T11:55:29.371Z,98674.11
2018-10-19T11:56:33.866Z,98672.42
2018-10-19T11:57:41.553Z,98672.48
2018-10-19T11:58:46.349Z,98673.03
2018-10-19T11:59:51.719Z,98667.60
2018-10-19T12:00:55.444Z,98670.92
2018-10-19T12:01:58.370Z,98670.34
2018-10-19T12:03:01.871Z,98671.61
2018-10-19T12:04:06.298Z,98670.73
2018-10-19T12:05:10.279Z,98668.67
2018-10-19T12:06:12.989Z,98667.53
2018-10-19T12:07:16.035Z,98673.15
2018-10-19T12:08:21.239Z,98665.16
2018-10-19T12:09:25.362Z,98667.22
2018-10-19T12:10:28.180Z,98666.94
2018-10-19T12:11:31.458Z,98665.56
2018-10-19T12:12:36.383Z,98659.34
2018-10-19T12:13:40.389Z,98656.93
2018-10-19T12:14:43.434Z,98653.52
2018-10-19T12:15:53.305Z,98658.80
2018-10-19T12:16:56.732Z,98661.44
2018-10-19T12:18:00.517Z,98659.95
2018-10-19T12:19:05.530Z,98656.63
2018-10-19T12:20:09.530Z,98659.37
2018-10-19T12:21:18.416Z,98661.81
2018-10-19T12:22:21.201Z,98659.42
2018-10-19T12:23:26.605Z,98660.56
2018-10-19T12:24:35.226Z,98657.34
2018-10-19T12:25:39.046Z,98657.70
2018-10-19T12:26:44.638Z,98659.77
2018-10-19T12:27:48.084Z,98658.58
2018-10-19T12:28:53.265Z,98656.91
2018-10-19T12:29:58.838Z,98659.41
2018-10-19T12:31:03.290Z,98657.81
2018-10-19T12:32:05.979Z,98657.81
2018-10-19T12:33:08.807Z,98658.28
2018-10-19T12:34:11.501Z,98654.13
2018-10-19T12:35:15.442Z,98652.74
2018-10-19T12:36:19.602Z,98653.88
2018-10-19T12:37:22.329Z,98656.16
2018-10-19T12:38:25.034Z,98655.01
2018-10-19T12:39:28.553Z,98655.84
2018-10-19T12:40:31.324Z,98654.91
2018-10-19T12:41:36.915Z,98661.00
2018-10-19T12:42:40.425Z,98648.53
2018-10-19T12:43:43.318Z,98642.67
2018-10-19T12:44:46.011Z,98648.28
2018-10-19T12:45:49.611Z,98646.44
2018-10-19T12:46:55.726Z,98645.06
2018-10-19T12:47:58.674Z,98648.40
2018-10-19T12:49:04.626Z,98648.75
2018-10-19T12:50:07.449Z,98644.87
2018-10-19T12:51:10.891Z,98647.69
2018-10-19T12:52:13.638Z,98644.81
2018-10-19T12:53:16.830Z,98649.03